Page, North Dakota
Current Conditions -  °F | °C
As of 5:15 PM on Wednesday 17 Dec 2014 (Local Time) from KBAC Reporting Station
Clear Clear  
Wind Chill:   Ceiling: Unl
Heat Index: 14°   Visibility: 10mi
Dew Point: 14°   Wind: 5mph
Humidity: 100%   Direction: 110°ESE
Pressure: 30.27"   Gusts: NA
Location:  47.16°N, 97.57°W
Report Text: KBAC 172315Z AUTO 11004KT 10SM CLR M10/M10 A3027 RMK AO2
Loading
Personal Weather Stations






























Interactive Weather Map New forecast layout! Learn more

10-Day Weather Forecast

Advertisements
Track Severe Weather on mobile